EZY37CN EGCC-LIMC
Flight info
| Callsign | EZY37CN |
|---|---|
| Flight time | 1h 47m |
| Altitude | 37000 |
| Route | LISTO L612 HON L15 BIG UL9 KONAN DCT KOK DCT CIV DCT SUTAL DCT GTQ DCT OBORN DCT DEVDI DCT BASGO/N0419F290 Z424 AKASU/N0353F190 Z424 RIXUV |
| Aircraft | A320/M-SDE3FGHIRWY/LB1 |
Departure
| Time | 2026-05-05 13:57 |
|---|---|
| Airport | Manchester Airport (EGCC) |
Arrival
| Time | 2026-05-05 15:45 |
|---|---|
| Airport | Milan Malpensa International Airport (LIMC) |
| Time | Latitude | Longitude | Altitude | Speed | Heading |
|---|---|---|---|---|---|
| 2026-05-05 13:05 | 53.36891 | -2.28789 | 255 ft | 0 kts | 135° |
| 2026-05-05 13:42 | 53.36892 | -2.28789 | 255 ft | 1 kts | 135° |
| 2026-05-05 13:42 | 53.36908 | -2.28816 | 255 ft | 3 kts | 135° |
| 2026-05-05 13:42 | 53.36920 | -2.28836 | 255 ft | 4 kts | 182° |
| 2026-05-05 13:42 | 53.36939 | -2.28820 | 255 ft | 4 kts | 225° |
| 2026-05-05 13:43 | 53.36953 | -2.28796 | 255 ft | 0 kts | 225° |
| 2026-05-05 13:47 | 53.36949 | -2.28803 | 255 ft | 2 kts | 223° |
| 2026-05-05 13:47 | 53.36926 | -2.28842 | 255 ft | 7 kts | 225° |
| 2026-05-05 13:47 | 53.36892 | -2.28897 | 255 ft | 7 kts | 225° |
| 2026-05-05 13:47 | 53.36862 | -2.28948 | 255 ft | 6 kts | 225° |
| 2026-05-05 13:48 | 53.36824 | -2.29008 | 255 ft | 8 kts | 213° |
| 2026-05-05 13:48 | 53.36775 | -2.29037 | 255 ft | 7 kts | 196° |
| 2026-05-05 13:48 | 53.36727 | -2.29012 | 255 ft | 8 kts | 135° |
| 2026-05-05 13:48 | 53.36689 | -2.28945 | 255 ft | 9 kts | 134° |
| 2026-05-05 13:49 | 53.36644 | -2.28897 | 255 ft | 7 kts | 171° |
| 2026-05-05 13:49 | 53.36606 | -2.28852 | 255 ft | 10 kts | 130° |
| 2026-05-05 13:49 | 53.36559 | -2.28723 | 255 ft | 14 kts | 131° |
| 2026-05-05 13:49 | 53.36489 | -2.28606 | 255 ft | 15 kts | 135° |
| 2026-05-05 13:50 | 53.36407 | -2.28489 | 255 ft | 16 kts | 160° |
| 2026-05-05 13:50 | 53.36313 | -2.28420 | 255 ft | 14 kts | 133° |
| 2026-05-05 13:50 | 53.36246 | -2.28304 | 255 ft | 13 kts | 135° |
| 2026-05-05 13:50 | 53.36184 | -2.28201 | 255 ft | 12 kts | 135° |
| 2026-05-05 13:51 | 53.36121 | -2.28092 | 255 ft | 16 kts | 135° |
| 2026-05-05 13:51 | 53.36033 | -2.27962 | 255 ft | 17 kts | 138° |
| 2026-05-05 13:51 | 53.35950 | -2.27856 | 255 ft | 14 kts | 159° |
| 2026-05-05 13:51 | 53.35853 | -2.27857 | 253 ft | 16 kts | 186° |
| 2026-05-05 13:52 | 53.35710 | -2.27881 | 245 ft | 24 kts | 185° |
| 2026-05-05 13:52 | 53.35611 | -2.27926 | 240 ft | 14 kts | 227° |
| 2026-05-05 13:52 | 53.35537 | -2.28071 | 234 ft | 19 kts | 216° |
| 2026-05-05 13:52 | 53.35421 | -2.28160 | 238 ft | 17 kts | 188° |
| 2026-05-05 13:53 | 53.35298 | -2.28217 | 233 ft | 21 kts | 210° |
| 2026-05-05 13:53 | 53.35216 | -2.28331 | 232 ft | 17 kts | 230° |
| 2026-05-05 13:53 | 53.35124 | -2.28523 | 227 ft | 23 kts | 231° |
| 2026-05-05 13:53 | 53.35048 | -2.28678 | 229 ft | 18 kts | 230° |
| 2026-05-05 13:54 | 53.34953 | -2.28850 | 226 ft | 22 kts | 226° |
| 2026-05-05 13:54 | 53.34853 | -2.29023 | 219 ft | 17 kts | 222° |
| 2026-05-05 13:54 | 53.34799 | -2.29069 | 222 ft | 0 kts | 188° |
| 2026-05-05 13:55 | 53.34798 | -2.29069 | 222 ft | 1 kts | 188° |
| 2026-05-05 13:55 | 53.34789 | -2.29072 | 218 ft | 2 kts | 187° |
| 2026-05-05 13:55 | 53.34732 | -2.29060 | 220 ft | 12 kts | 160° |
| 2026-05-05 13:55 | 53.34667 | -2.28995 | 218 ft | 10 kts | 140° |
| 2026-05-05 13:56 | 53.34670 | -2.28953 | 219 ft | 4 kts | 62° |
| 2026-05-05 13:56 | 53.34688 | -2.28915 | 222 ft | 3 kts | 50° |
| 2026-05-05 13:56 | 53.34690 | -2.28912 | 221 ft | 1 kts | 50° |
| 2026-05-05 13:56 | 53.34787 | -2.28713 | 227 ft | 58 kts | 51° |
| 2026-05-05 13:57 | 53.35195 | -2.27870 | 237 ft | 126 kts | 51° |
| 2026-05-05 13:57 | 53.35865 | -2.26497 | 365 ft | 169 kts | 49° |
| 2026-05-05 13:57 | 53.36594 | -2.24991 | 1148 ft | 165 kts | 48° |
| 2026-05-05 13:57 | 53.37340 | -2.23470 | 1798 ft | 178 kts | 49° |
| 2026-05-05 13:58 | 53.37844 | -2.21451 | 2112 ft | 207 kts | 87° |
| 2026-05-05 13:58 | 53.37323 | -2.19086 | 2436 ft | 236 kts | 130° |
| 2026-05-05 13:58 | 53.35862 | -2.17591 | 2864 ft | 261 kts | 161° |
| 2026-05-05 13:58 | 53.34049 | -2.16973 | 3629 ft | 269 kts | 176° |
| 2026-05-05 13:59 | 53.30267 | -2.17405 | 5424 ft | 277 kts | 185° |
| 2026-05-05 13:59 | 53.28343 | -2.17708 | 6358 ft | 277 kts | 185° |
| 2026-05-05 14:00 | 53.24473 | -2.18320 | 8011 ft | 282 kts | 186° |
| 2026-05-05 14:00 | 53.22505 | -2.18628 | 8804 ft | 287 kts | 187° |
| 2026-05-05 14:00 | 53.20502 | -2.18940 | 9617 ft | 291 kts | 187° |
| 2026-05-05 14:00 | 53.18477 | -2.19255 | 10347 ft | 297 kts | 188° |
| 2026-05-05 14:01 | 53.16337 | -2.19561 | 10554 ft | 321 kts | 184° |
| 2026-05-05 14:01 | 53.14054 | -2.19275 | 11001 ft | 335 kts | 170° |
| 2026-05-05 14:01 | 53.11802 | -2.18165 | 11697 ft | 341 kts | 159° |
| 2026-05-05 14:01 | 53.09596 | -2.16627 | 12395 ft | 345 kts | 159° |
| 2026-05-05 14:02 | 53.07368 | -2.15075 | 13107 ft | 348 kts | 159° |
| 2026-05-05 14:02 | 53.05123 | -2.13517 | 13800 ft | 352 kts | 159° |
| 2026-05-05 14:02 | 53.02855 | -2.11956 | 14452 ft | 354 kts | 159° |
| 2026-05-05 14:02 | 53.00569 | -2.10387 | 15076 ft | 357 kts | 159° |
| 2026-05-05 14:03 | 52.98264 | -2.08806 | 15683 ft | 360 kts | 160° |
| 2026-05-05 14:03 | 52.95945 | -2.07214 | 16327 ft | 362 kts | 160° |
| 2026-05-05 14:03 | 52.93611 | -2.05614 | 16932 ft | 364 kts | 160° |
| 2026-05-05 14:03 | 52.91259 | -2.04004 | 17546 ft | 367 kts | 160° |
| 2026-05-05 14:04 | 52.88888 | -2.02378 | 18156 ft | 370 kts | 160° |
| 2026-05-05 14:04 | 52.86497 | -2.00734 | 18699 ft | 373 kts | 160° |
| 2026-05-05 14:04 | 52.84099 | -1.99084 | 19234 ft | 375 kts | 160° |
| 2026-05-05 14:04 | 52.81680 | -1.97427 | 19754 ft | 377 kts | 160° |
| 2026-05-05 14:05 | 52.79246 | -1.95768 | 20265 ft | 380 kts | 160° |
| 2026-05-05 14:05 | 52.76796 | -1.94105 | 20769 ft | 382 kts | 160° |
| 2026-05-05 14:05 | 52.74327 | -1.92432 | 21252 ft | 385 kts | 160° |
| 2026-05-05 14:05 | 52.71843 | -1.90749 | 21753 ft | 387 kts | 160° |
| 2026-05-05 14:06 | 52.69342 | -1.89049 | 22227 ft | 390 kts | 160° |
| 2026-05-05 14:06 | 52.66829 | -1.87340 | 22688 ft | 392 kts | 160° |
| 2026-05-05 14:06 | 52.64298 | -1.85625 | 23170 ft | 394 kts | 160° |
| 2026-05-05 14:06 | 52.61756 | -1.83902 | 23619 ft | 397 kts | 160° |
| 2026-05-05 14:07 | 52.59194 | -1.82172 | 24006 ft | 399 kts | 160° |
| 2026-05-05 14:07 | 52.56617 | -1.80434 | 24395 ft | 401 kts | 160° |
| 2026-05-05 14:07 | 52.54035 | -1.78693 | 24768 ft | 403 kts | 160° |
| 2026-05-05 14:07 | 52.51432 | -1.76942 | 25158 ft | 405 kts | 160° |
| 2026-05-05 14:08 | 52.48826 | -1.75190 | 25562 ft | 405 kts | 160° |
| 2026-05-05 14:08 | 52.46213 | -1.73433 | 25957 ft | 407 kts | 160° |
| 2026-05-05 14:08 | 52.43589 | -1.71674 | 26329 ft | 408 kts | 160° |
| 2026-05-05 14:08 | 52.40953 | -1.69912 | 26689 ft | 410 kts | 160° |
| 2026-05-05 14:09 | 52.38309 | -1.68122 | 27041 ft | 413 kts | 157° |
| 2026-05-05 14:09 | 52.35797 | -1.65805 | 27381 ft | 417 kts | 147° |
| 2026-05-05 14:09 | 52.33555 | -1.62759 | 27719 ft | 422 kts | 137° |
| 2026-05-05 14:09 | 52.31521 | -1.59290 | 28053 ft | 424 kts | 136° |
| 2026-05-05 14:10 | 52.29475 | -1.55791 | 28389 ft | 426 kts | 136° |
| 2026-05-05 14:10 | 52.27422 | -1.52284 | 28724 ft | 428 kts | 136° |
| 2026-05-05 14:10 | 52.25358 | -1.48764 | 29041 ft | 430 kts | 136° |
| 2026-05-05 14:10 | 52.23287 | -1.45242 | 29399 ft | 431 kts | 137° |
| 2026-05-05 14:11 | 52.21210 | -1.41712 | 29763 ft | 431 kts | 137° |
| 2026-05-05 14:11 | 52.19130 | -1.38178 | 30090 ft | 433 kts | 137° |
| 2026-05-05 14:11 | 52.17041 | -1.34638 | 30344 ft | 434 kts | 137° |
| 2026-05-05 14:11 | 52.14940 | -1.31084 | 30593 ft | 436 kts | 137° |
| 2026-05-05 14:12 | 52.12832 | -1.27521 | 30827 ft | 438 kts | 137° |
| 2026-05-05 14:12 | 52.10718 | -1.23955 | 31143 ft | 437 kts | 137° |
| 2026-05-05 14:12 | 52.08611 | -1.20407 | 31476 ft | 436 kts | 137° |
| 2026-05-05 14:12 | 52.06502 | -1.16864 | 31808 ft | 436 kts | 137° |
| 2026-05-05 14:13 | 52.04393 | -1.13323 | 32136 ft | 435 kts | 136° |
| 2026-05-05 14:13 | 52.02293 | -1.09800 | 32493 ft | 433 kts | 136° |
| 2026-05-05 14:13 | 52.00200 | -1.06301 | 32883 ft | 431 kts | 136° |
| 2026-05-05 14:13 | 51.98109 | -1.02812 | 33234 ft | 430 kts | 136° |
| 2026-05-05 14:14 | 51.96026 | -0.99340 | 33567 ft | 429 kts | 136° |
| 2026-05-05 14:14 | 51.93949 | -0.95878 | 33917 ft | 428 kts | 136° |
| 2026-05-05 14:14 | 51.91876 | -0.92427 | 34213 ft | 427 kts | 136° |
| 2026-05-05 14:14 | 51.89802 | -0.88972 | 34448 ft | 427 kts | 136° |
| 2026-05-05 14:15 | 51.87732 | -0.85528 | 34660 ft | 428 kts | 136° |
| 2026-05-05 14:15 | 51.85651 | -0.82072 | 34872 ft | 428 kts | 136° |
| 2026-05-05 14:15 | 51.83567 | -0.78621 | 35084 ft | 429 kts | 136° |
| 2026-05-05 14:15 | 51.81478 | -0.75171 | 35279 ft | 430 kts | 136° |
| 2026-05-05 14:16 | 51.79389 | -0.71722 | 35458 ft | 430 kts | 136° |
| 2026-05-05 14:16 | 51.77294 | -0.68267 | 35632 ft | 431 kts | 136° |
| 2026-05-05 14:16 | 51.75235 | -0.64876 | 35838 ft | 431 kts | 136° |
| 2026-05-05 14:16 | 51.73410 | -0.61877 | 36000 ft | 0 kts | 136° |
| 2026-05-05 14:17 | 51.71435 | -0.58793 | 36229 ft | 431 kts | 137° |
| 2026-05-05 14:17 | 51.69314 | -0.55364 | 36377 ft | 432 kts | 136° |
| 2026-05-05 14:17 | 51.67216 | -0.51896 | 36552 ft | 433 kts | 136° |
| 2026-05-05 14:17 | 51.65126 | -0.48409 | 36722 ft | 433 kts | 135° |
| 2026-05-05 14:18 | 51.63035 | -0.44930 | 36910 ft | 433 kts | 136° |
| 2026-05-05 14:18 | 51.60933 | -0.41459 | 36975 ft | 433 kts | 136° |
| 2026-05-05 14:18 | 51.56731 | -0.34596 | 36973 ft | 435 kts | 136° |
| 2026-05-05 14:19 | 51.52419 | -0.27625 | 36975 ft | 438 kts | 136° |
| 2026-05-05 14:19 | 51.48150 | -0.20737 | 36969 ft | 438 kts | 136° |
| 2026-05-05 14:20 | 51.43820 | -0.13762 | 36963 ft | 438 kts | 136° |
| 2026-05-05 14:20 | 51.39514 | -0.06842 | 36959 ft | 438 kts | 136° |
| 2026-05-05 14:21 | 51.35501 | -0.00077 | 36957 ft | 440 kts | 129° |
| 2026-05-05 14:21 | 51.32617 | 0.08544 | 37021 ft | 443 kts | 109° |
| 2026-05-05 14:22 | 51.31494 | 0.16552 | 37057 ft | 445 kts | 103° |
| 2026-05-05 14:22 | 51.30352 | 0.25917 | 37096 ft | 445 kts | 103° |
| 2026-05-05 14:23 | 51.29157 | 0.35606 | 37127 ft | 444 kts | 103° |
| 2026-05-05 14:23 | 51.27956 | 0.45291 | 37138 ft | 444 kts | 103° |
| 2026-05-05 14:24 | 51.26738 | 0.54966 | 37117 ft | 445 kts | 104° |
| 2026-05-05 14:24 | 51.25514 | 0.64652 | 37089 ft | 445 kts | 103° |
| 2026-05-05 14:25 | 51.24275 | 0.74350 | 37057 ft | 446 kts | 103° |
| 2026-05-05 14:25 | 51.23032 | 0.84036 | 37020 ft | 446 kts | 104° |
| 2026-05-05 14:26 | 51.21789 | 0.93731 | 36983 ft | 446 kts | 103° |
| 2026-05-05 14:26 | 51.20536 | 1.03417 | 36954 ft | 446 kts | 103° |
| 2026-05-05 14:27 | 51.19279 | 1.13093 | 36956 ft | 446 kts | 104° |
| 2026-05-05 14:27 | 51.18013 | 1.22763 | 36962 ft | 446 kts | 105° |
| 2026-05-05 14:28 | 51.16728 | 1.32428 | 36963 ft | 446 kts | 104° |
| 2026-05-05 14:28 | 51.15957 | 1.42230 | 36957 ft | 447 kts | 96° |
| 2026-05-05 14:29 | 51.15494 | 1.52109 | 36944 ft | 448 kts | 96° |
| 2026-05-05 14:29 | 51.15014 | 1.62001 | 36939 ft | 448 kts | 96° |
| 2026-05-05 14:30 | 51.14520 | 1.71896 | 36948 ft | 448 kts | 96° |
| 2026-05-05 14:30 | 51.14014 | 1.81793 | 36942 ft | 449 kts | 97° |
| 2026-05-05 14:31 | 51.13502 | 1.91695 | 36932 ft | 449 kts | 97° |
| 2026-05-05 14:31 | 51.12989 | 2.01600 | 36945 ft | 449 kts | 96° |
| 2026-05-05 14:32 | 51.12466 | 2.11510 | 36930 ft | 449 kts | 97° |
| 2026-05-05 14:32 | 51.11934 | 2.21406 | 36937 ft | 449 kts | 97° |
| 2026-05-05 14:33 | 51.11394 | 2.31304 | 36933 ft | 449 kts | 97° |
| 2026-05-05 14:33 | 51.10844 | 2.41204 | 36922 ft | 449 kts | 97° |
| 2026-05-05 14:34 | 51.10279 | 2.51094 | 36924 ft | 449 kts | 97° |
| 2026-05-05 14:34 | 51.09564 | 2.60940 | 36923 ft | 446 kts | 105° |
| 2026-05-05 14:35 | 51.07328 | 2.70022 | 36901 ft | 439 kts | 124° |
| 2026-05-05 14:35 | 51.03907 | 2.78031 | 36909 ft | 438 kts | 127° |
| 2026-05-05 14:36 | 51.00453 | 2.86003 | 36909 ft | 438 kts | 127° |
| 2026-05-05 14:36 | 50.96992 | 2.93966 | 36915 ft | 438 kts | 127° |
| 2026-05-05 14:37 | 50.93498 | 3.01951 | 36909 ft | 438 kts | 127° |
| 2026-05-05 14:37 | 50.89984 | 3.09966 | 36899 ft | 447 kts | 127° |
| 2026-05-05 14:38 | 50.86044 | 3.17503 | 36749 ft | 440 kts | 146° |
| 2026-05-05 14:38 | 50.83884 | 3.20782 | 36912 ft | 425 kts | 131° |
| 2026-05-05 14:38 | 50.82253 | 3.24604 | 36818 ft | 414 kts | 122° |
| 2026-05-05 14:39 | 50.80946 | 3.28538 | 36876 ft | 399 kts | 120° |
| 2026-05-05 14:39 | 50.79715 | 3.32373 | 36882 ft | 384 kts | 121° |
| 2026-05-05 14:39 | 50.78447 | 3.35998 | 36884 ft | 372 kts | 124° |
| 2026-05-05 14:39 | 50.77074 | 3.39494 | 36886 ft | 377 kts | 126° |
| 2026-05-05 14:40 | 50.74032 | 3.46397 | 36884 ft | 388 kts | 129° |
| 2026-05-05 14:40 | 50.70812 | 3.53381 | 36881 ft | 399 kts | 129° |
| 2026-05-05 14:41 | 50.67541 | 3.60597 | 36883 ft | 410 kts | 128° |
| 2026-05-05 14:41 | 50.64218 | 3.68038 | 36883 ft | 420 kts | 128° |
| 2026-05-05 14:42 | 50.60816 | 3.75650 | 36874 ft | 429 kts | 128° |
| 2026-05-05 14:42 | 50.57330 | 3.83400 | 36878 ft | 438 kts | 128° |
| 2026-05-05 14:43 | 50.53892 | 3.91428 | 36885 ft | 446 kts | 125° |
| 2026-05-05 14:43 | 50.50560 | 3.99669 | 36878 ft | 447 kts | 125° |
| 2026-05-05 14:44 | 50.47210 | 4.07901 | 36881 ft | 447 kts | 126° |
| 2026-05-05 14:44 | 50.43803 | 4.16080 | 36887 ft | 447 kts | 126° |
| 2026-05-05 14:45 | 50.40379 | 4.24219 | 36891 ft | 447 kts | 126° |
| 2026-05-05 14:45 | 50.36963 | 4.32374 | 36893 ft | 447 kts | 126° |
| 2026-05-05 14:46 | 50.33545 | 4.40514 | 36891 ft | 448 kts | 126° |
| 2026-05-05 14:46 | 50.30112 | 4.48654 | 36884 ft | 448 kts | 126° |
| 2026-05-05 14:47 | 50.26675 | 4.56778 | 36888 ft | 448 kts | 126° |
| 2026-05-05 14:47 | 50.23230 | 4.64886 | 36876 ft | 448 kts | 126° |
| 2026-05-05 14:48 | 50.19787 | 4.72971 | 36881 ft | 448 kts | 126° |
| 2026-05-05 14:48 | 50.16338 | 4.81057 | 36881 ft | 448 kts | 126° |
| 2026-05-05 14:49 | 50.12883 | 4.89128 | 36882 ft | 448 kts | 126° |
| 2026-05-05 14:49 | 50.09423 | 4.97185 | 36877 ft | 447 kts | 126° |
| 2026-05-05 14:50 | 50.05959 | 5.05217 | 36859 ft | 447 kts | 126° |
| 2026-05-05 14:50 | 50.02493 | 5.13239 | 36859 ft | 447 kts | 126° |
| 2026-05-05 14:51 | 49.99033 | 5.21235 | 36864 ft | 447 kts | 126° |
| 2026-05-05 14:51 | 49.95555 | 5.29246 | 36861 ft | 447 kts | 126° |
| 2026-05-05 14:52 | 49.92065 | 5.37243 | 36857 ft | 447 kts | 127° |
| 2026-05-05 14:52 | 49.88564 | 5.45224 | 36843 ft | 447 kts | 127° |
| 2026-05-05 14:53 | 49.84856 | 5.52911 | 36851 ft | 442 kts | 139° |
| 2026-05-05 14:53 | 49.80340 | 5.59336 | 36850 ft | 441 kts | 140° |
| 2026-05-05 14:54 | 49.75796 | 5.65721 | 36847 ft | 442 kts | 140° |
| 2026-05-05 14:54 | 49.71240 | 5.72093 | 36841 ft | 442 kts | 140° |
| 2026-05-05 14:55 | 49.66679 | 5.78462 | 36845 ft | 442 kts | 140° |
| 2026-05-05 14:55 | 49.62115 | 5.84824 | 36845 ft | 442 kts | 140° |
| 2026-05-05 14:56 | 49.57568 | 5.91140 | 36840 ft | 442 kts | 140° |
| 2026-05-05 14:56 | 49.53003 | 5.97464 | 36840 ft | 442 kts | 140° |
| 2026-05-05 14:57 | 49.48430 | 6.03789 | 36839 ft | 442 kts | 140° |
| 2026-05-05 14:57 | 49.43860 | 6.10108 | 36844 ft | 442 kts | 140° |
| 2026-05-05 14:58 | 49.39277 | 6.16422 | 36852 ft | 443 kts | 140° |
| 2026-05-05 14:58 | 49.34677 | 6.22716 | 36857 ft | 443 kts | 140° |
| 2026-05-05 14:59 | 49.30083 | 6.29002 | 36854 ft | 442 kts | 140° |
| 2026-05-05 14:59 | 49.25497 | 6.35281 | 36861 ft | 442 kts | 140° |
| 2026-05-05 15:00 | 49.21656 | 6.40523 | 36856 ft | 442 kts | 141° |
| 2026-05-05 15:00 | 49.17060 | 6.46765 | 36857 ft | 442 kts | 141° |
| 2026-05-05 15:01 | 49.12458 | 6.52989 | 36859 ft | 442 kts | 141° |
| 2026-05-05 15:01 | 49.07851 | 6.59201 | 36862 ft | 443 kts | 141° |
| 2026-05-05 15:02 | 49.03234 | 6.65421 | 36844 ft | 443 kts | 141° |
| 2026-05-05 15:02 | 48.98572 | 6.71569 | 36849 ft | 442 kts | 146° |
| 2026-05-05 15:03 | 48.93389 | 6.76553 | 36859 ft | 441 kts | 150° |
| 2026-05-05 15:03 | 48.88161 | 6.81426 | 36868 ft | 441 kts | 150° |
| 2026-05-05 15:04 | 48.82932 | 6.86294 | 36869 ft | 440 kts | 150° |
| 2026-05-05 15:04 | 48.77708 | 6.91147 | 36867 ft | 440 kts | 151° |
| 2026-05-05 15:05 | 48.69874 | 6.98400 | 36841 ft | 440 kts | 151° |
| 2026-05-05 15:06 | 48.64654 | 7.03231 | 36854 ft | 440 kts | 151° |
| 2026-05-05 15:06 | 48.59427 | 7.08037 | 36856 ft | 440 kts | 151° |
| 2026-05-05 15:07 | 48.54202 | 7.12834 | 36859 ft | 439 kts | 151° |
| 2026-05-05 15:07 | 48.48973 | 7.17617 | 36859 ft | 439 kts | 151° |
| 2026-05-05 15:08 | 48.43487 | 7.21494 | 36856 ft | 435 kts | 164° |
| 2026-05-05 15:08 | 48.37711 | 7.24281 | 36833 ft | 437 kts | 164° |
| 2026-05-05 15:09 | 48.31914 | 7.27080 | 36829 ft | 438 kts | 164° |
| 2026-05-05 15:09 | 48.26101 | 7.29889 | 36800 ft | 439 kts | 164° |
| 2026-05-05 15:10 | 48.20287 | 7.32691 | 36809 ft | 439 kts | 164° |
| 2026-05-05 15:10 | 48.14455 | 7.35490 | 37038 ft | 441 kts | 164° |
| 2026-05-05 15:10 | 48.11533 | 7.36885 | 37217 ft | 440 kts | 165° |
| 2026-05-05 15:11 | 48.08616 | 7.38277 | 37388 ft | 440 kts | 165° |
| 2026-05-05 15:11 | 48.05696 | 7.39670 | 37565 ft | 440 kts | 165° |
| 2026-05-05 15:11 | 48.02773 | 7.41062 | 37745 ft | 440 kts | 165° |
| 2026-05-05 15:11 | 47.99859 | 7.42450 | 37923 ft | 440 kts | 165° |
| 2026-05-05 15:12 | 47.96940 | 7.43844 | 38075 ft | 440 kts | 165° |
| 2026-05-05 15:12 | 47.94018 | 7.45235 | 38224 ft | 441 kts | 165° |
| 2026-05-05 15:12 | 47.91099 | 7.46618 | 38371 ft | 441 kts | 165° |
| 2026-05-05 15:12 | 47.88176 | 7.48004 | 38512 ft | 441 kts | 165° |
| 2026-05-05 15:13 | 47.85256 | 7.49394 | 38622 ft | 441 kts | 165° |
| 2026-05-05 15:13 | 47.82338 | 7.50780 | 38770 ft | 440 kts | 165° |
| 2026-05-05 15:13 | 47.79416 | 7.52162 | 38847 ft | 441 kts | 165° |
| 2026-05-05 15:14 | 47.73570 | 7.54997 | 38862 ft | 444 kts | 161° |
| 2026-05-05 15:14 | 47.67894 | 7.58675 | 38850 ft | 445 kts | 159° |
| 2026-05-05 15:15 | 47.62208 | 7.62366 | 38863 ft | 446 kts | 159° |
| 2026-05-05 15:15 | 47.56521 | 7.66037 | 38866 ft | 446 kts | 160° |
| 2026-05-05 15:16 | 47.50823 | 7.69704 | 38873 ft | 447 kts | 160° |
| 2026-05-05 15:16 | 47.45115 | 7.73357 | 38874 ft | 447 kts | 160° |
| 2026-05-05 15:17 | 47.39414 | 7.77008 | 38864 ft | 447 kts | 160° |
| 2026-05-05 15:17 | 47.33707 | 7.80672 | 38873 ft | 447 kts | 160° |
| 2026-05-05 15:18 | 47.27995 | 7.84333 | 38872 ft | 448 kts | 160° |
| 2026-05-05 15:18 | 47.22272 | 7.87975 | 38873 ft | 448 kts | 160° |
| 2026-05-05 15:19 | 47.16546 | 7.91609 | 38873 ft | 448 kts | 160° |
| 2026-05-05 15:19 | 47.10823 | 7.95232 | 38863 ft | 448 kts | 160° |
| 2026-05-05 15:20 | 47.05055 | 7.98876 | 38864 ft | 449 kts | 160° |
| 2026-05-05 15:20 | 46.99327 | 8.02486 | 38594 ft | 444 kts | 161° |
| 2026-05-05 15:20 | 46.96512 | 8.04262 | 38143 ft | 439 kts | 161° |
| 2026-05-05 15:21 | 46.93717 | 8.06024 | 37536 ft | 437 kts | 161° |
| 2026-05-05 15:21 | 46.90931 | 8.07777 | 36881 ft | 436 kts | 161° |
| 2026-05-05 15:21 | 46.88145 | 8.09528 | 36194 ft | 436 kts | 161° |
| 2026-05-05 15:21 | 46.85362 | 8.11275 | 35503 ft | 436 kts | 162° |
| 2026-05-05 15:22 | 46.82571 | 8.13028 | 34828 ft | 436 kts | 162° |
| 2026-05-05 15:22 | 46.79785 | 8.14773 | 34037 ft | 438 kts | 162° |
| 2026-05-05 15:22 | 46.76976 | 8.16522 | 33168 ft | 439 kts | 163° |
| 2026-05-05 15:22 | 46.74160 | 8.18269 | 32316 ft | 441 kts | 163° |
| 2026-05-05 15:23 | 46.71328 | 8.20024 | 31410 ft | 443 kts | 162° |
| 2026-05-05 15:23 | 46.68481 | 8.21790 | 30415 ft | 447 kts | 162° |
| 2026-05-05 15:23 | 46.65607 | 8.23576 | 29366 ft | 450 kts | 162° |
| 2026-05-05 15:23 | 46.62724 | 8.25374 | 28394 ft | 450 kts | 162° |
| 2026-05-05 15:24 | 46.59866 | 8.27161 | 27739 ft | 444 kts | 162° |
| 2026-05-05 15:24 | 46.57048 | 8.28921 | 26985 ft | 438 kts | 162° |
| 2026-05-05 15:24 | 46.54265 | 8.30654 | 26273 ft | 433 kts | 162° |
| 2026-05-05 15:24 | 46.51506 | 8.32361 | 25722 ft | 430 kts | 161° |
| 2026-05-05 15:25 | 46.48759 | 8.34057 | 25241 ft | 427 kts | 161° |
| 2026-05-05 15:25 | 46.46028 | 8.35739 | 24764 ft | 425 kts | 161° |
| 2026-05-05 15:25 | 46.43319 | 8.37399 | 24295 ft | 421 kts | 161° |
| 2026-05-05 15:25 | 46.40630 | 8.39046 | 23849 ft | 418 kts | 161° |
| 2026-05-05 15:26 | 46.37960 | 8.40684 | 23379 ft | 415 kts | 161° |
| 2026-05-05 15:26 | 46.35310 | 8.42313 | 22809 ft | 412 kts | 161° |
| 2026-05-05 15:26 | 46.32682 | 8.43927 | 22262 ft | 409 kts | 161° |
| 2026-05-05 15:26 | 46.30067 | 8.45531 | 21731 ft | 406 kts | 161° |
| 2026-05-05 15:27 | 46.27443 | 8.46957 | 21213 ft | 399 kts | 169° |
| 2026-05-05 15:27 | 46.24743 | 8.47602 | 20704 ft | 391 kts | 178° |
| 2026-05-05 15:27 | 46.22045 | 8.47981 | 20199 ft | 389 kts | 178° |
| 2026-05-05 15:27 | 46.19357 | 8.48357 | 19716 ft | 386 kts | 178° |
| 2026-05-05 15:28 | 46.16693 | 8.48731 | 19221 ft | 383 kts | 178° |
| 2026-05-05 15:28 | 46.14053 | 8.49105 | 18746 ft | 380 kts | 178° |
| 2026-05-05 15:28 | 46.11432 | 8.49544 | 18264 ft | 380 kts | 173° |
| 2026-05-05 15:28 | 46.08896 | 8.50652 | 17721 ft | 382 kts | 163° |
| 2026-05-05 15:29 | 46.06415 | 8.51986 | 17206 ft | 380 kts | 163° |
| 2026-05-05 15:29 | 46.03943 | 8.53325 | 16671 ft | 378 kts | 163° |
| 2026-05-05 15:29 | 46.01495 | 8.54652 | 16159 ft | 375 kts | 163° |
| 2026-05-05 15:29 | 45.99058 | 8.55967 | 15650 ft | 373 kts | 163° |
| 2026-05-05 15:30 | 45.96636 | 8.57271 | 15185 ft | 371 kts | 163° |
| 2026-05-05 15:30 | 45.94220 | 8.58572 | 14990 ft | 370 kts | 163° |
| 2026-05-05 15:30 | 45.91810 | 8.59868 | 15000 ft | 371 kts | 163° |
| 2026-05-05 15:30 | 45.89459 | 8.61426 | 15001 ft | 376 kts | 151° |
| 2026-05-05 15:31 | 45.87361 | 8.63715 | 15005 ft | 380 kts | 145° |
| 2026-05-05 15:31 | 45.85315 | 8.66084 | 14663 ft | 376 kts | 145° |
| 2026-05-05 15:31 | 45.83290 | 8.68442 | 14130 ft | 374 kts | 144° |
| 2026-05-05 15:31 | 45.81272 | 8.70789 | 13572 ft | 372 kts | 144° |
| 2026-05-05 15:32 | 45.79270 | 8.73111 | 12996 ft | 369 kts | 144° |
| 2026-05-05 15:32 | 45.77276 | 8.75419 | 12431 ft | 367 kts | 144° |
| 2026-05-05 15:32 | 45.75166 | 8.77388 | 11877 ft | 360 kts | 154° |
| 2026-05-05 15:32 | 45.72963 | 8.79090 | 11126 ft | 362 kts | 154° |
| 2026-05-05 15:33 | 45.70730 | 8.80803 | 10426 ft | 364 kts | 154° |
| 2026-05-05 15:33 | 45.68550 | 8.82475 | 10409 ft | 344 kts | 154° |
| 2026-05-05 15:33 | 45.66502 | 8.84047 | 10406 ft | 326 kts | 154° |
| 2026-05-05 15:33 | 45.64563 | 8.85539 | 10397 ft | 304 kts | 154° |
| 2026-05-05 15:34 | 45.62756 | 8.86931 | 10119 ft | 289 kts | 155° |
| 2026-05-05 15:34 | 45.60908 | 8.87933 | 9555 ft | 280 kts | 171° |
| 2026-05-05 15:34 | 45.59008 | 8.88446 | 8911 ft | 277 kts | 172° |
| 2026-05-05 15:34 | 45.57112 | 8.88952 | 8415 ft | 277 kts | 171° |
| 2026-05-05 15:35 | 45.55225 | 8.89459 | 8073 ft | 275 kts | 171° |
| 2026-05-05 15:35 | 45.53350 | 8.89963 | 7697 ft | 273 kts | 171° |
| 2026-05-05 15:35 | 45.51488 | 8.90465 | 7342 ft | 272 kts | 170° |
| 2026-05-05 15:35 | 45.49639 | 8.90966 | 6998 ft | 270 kts | 170° |
| 2026-05-05 15:36 | 45.47826 | 8.91463 | 6848 ft | 260 kts | 169° |
| 2026-05-05 15:36 | 45.46087 | 8.91941 | 6722 ft | 249 kts | 169° |
| 2026-05-05 15:36 | 45.44428 | 8.92395 | 6599 ft | 238 kts | 169° |
| 2026-05-05 15:36 | 45.42833 | 8.92833 | 6413 ft | 231 kts | 169° |
| 2026-05-05 15:37 | 45.41267 | 8.93261 | 6112 ft | 228 kts | 170° |
| 2026-05-05 15:37 | 45.39712 | 8.93682 | 5797 ft | 227 kts | 170° |
| 2026-05-05 15:37 | 45.38166 | 8.94110 | 5480 ft | 226 kts | 171° |
| 2026-05-05 15:37 | 45.36629 | 8.94190 | 5207 ft | 219 kts | 196° |
| 2026-05-05 15:38 | 45.35705 | 8.93581 | 4986 ft | 218 kts | 218° |
| 2026-05-05 15:38 | 45.34839 | 8.91856 | 4742 ft | 219 kts | 253° |
| 2026-05-05 15:38 | 45.34830 | 8.89677 | 4593 ft | 227 kts | 287° |
| 2026-05-05 15:38 | 45.35648 | 8.87762 | 4436 ft | 230 kts | 310° |
| 2026-05-05 15:39 | 45.36739 | 8.86094 | 4289 ft | 231 kts | 313° |
| 2026-05-05 15:39 | 45.37863 | 8.84467 | 4135 ft | 230 kts | 314° |
| 2026-05-05 15:39 | 45.38991 | 8.82850 | 3979 ft | 230 kts | 314° |
| 2026-05-05 15:39 | 45.40118 | 8.81237 | 3830 ft | 230 kts | 314° |
| 2026-05-05 15:40 | 45.41289 | 8.79711 | 3667 ft | 226 kts | 327° |
| 2026-05-05 15:40 | 45.42726 | 8.78925 | 3526 ft | 219 kts | 349° |
| 2026-05-05 15:40 | 45.44196 | 8.78525 | 3373 ft | 212 kts | 350° |
| 2026-05-05 15:40 | 45.45627 | 8.78137 | 3220 ft | 207 kts | 350° |
| 2026-05-05 15:41 | 45.47031 | 8.77752 | 3098 ft | 204 kts | 350° |
| 2026-05-05 15:41 | 45.48426 | 8.77370 | 3008 ft | 204 kts | 351° |
| 2026-05-05 15:41 | 45.49785 | 8.76996 | 3021 ft | 196 kts | 350° |
| 2026-05-05 15:41 | 45.51109 | 8.76632 | 2837 ft | 192 kts | 351° |
| 2026-05-05 15:42 | 45.52415 | 8.76273 | 2604 ft | 189 kts | 351° |
| 2026-05-05 15:42 | 45.53666 | 8.75928 | 2375 ft | 177 kts | 351° |
| 2026-05-05 15:42 | 45.54840 | 8.75605 | 2132 ft | 168 kts | 350° |
| 2026-05-05 15:42 | 45.55979 | 8.75292 | 1907 ft | 165 kts | 351° |
| 2026-05-05 15:43 | 45.57102 | 8.74983 | 1683 ft | 164 kts | 350° |
| 2026-05-05 15:43 | 45.58213 | 8.74677 | 1443 ft | 161 kts | 349° |
| 2026-05-05 15:43 | 45.59307 | 8.74373 | 1231 ft | 159 kts | 349° |
| 2026-05-05 15:43 | 45.60391 | 8.74069 | 980 ft | 159 kts | 350° |
| 2026-05-05 15:44 | 45.61464 | 8.73782 | 810 ft | 157 kts | 349° |
| 2026-05-05 15:44 | 45.62461 | 8.73504 | 740 ft | 128 kts | 349° |
| 2026-05-05 15:44 | 45.63218 | 8.73295 | 739 ft | 97 kts | 349° |
| 2026-05-05 15:44 | 45.63791 | 8.73135 | 741 ft | 73 kts | 348° |
| 2026-05-05 15:45 | 45.64190 | 8.73026 | 737 ft | 44 kts | 350° |
| 2026-05-05 15:45 | 45.64322 | 8.72876 | 740 ft | 20 kts | 305° |
| 2026-05-05 15:45 | 45.64398 | 8.72720 | 740 ft | 18 kts | 303° |